createdAt,value
2023-05-06T00:00:41.057Z,9.84
2023-05-06T00:01:41.051Z,9.84
2023-05-06T00:02:41.074Z,9.84
2023-05-06T00:03:41.236Z,9.86
2023-05-06T00:04:41.105Z,9.87
2023-05-06T00:05:41.043Z,9.87
2023-05-06T00:06:41.043Z,9.87
2023-05-06T00:07:41.333Z,9.88
2023-05-06T00:08:43.559Z,9.88
2023-05-06T00:09:46.773Z,9.86
2023-05-06T00:11:41.041Z,9.83
2023-05-06T00:12:41.059Z,9.82
2023-05-06T00:13:41.040Z,9.79
2023-05-06T00:14:41.047Z,9.79
2023-05-06T00:15:41.152Z,9.78
2023-05-06T00:16:41.098Z,9.76
2023-05-06T00:17:41.052Z,9.76
2023-05-06T00:18:41.049Z,9.75
2023-05-06T00:19:41.048Z,9.74
2023-05-06T00:20:41.042Z,9.74
2023-05-06T00:21:41.034Z,9.73
2023-05-06T00:22:41.036Z,9.71
2023-05-06T00:23:41.056Z,9.7
2023-05-06T00:24:41.040Z,9.68
2023-05-06T00:25:41.034Z,9.67
2023-05-06T00:26:41.035Z,9.68
2023-05-06T00:27:41.039Z,9.66
2023-05-06T00:28:41.442Z,9.66
2023-05-06T00:29:44.163Z,9.65
2023-05-06T00:30:46.657Z,9.65
2023-05-06T00:32:41.144Z,9.7
2023-05-06T00:33:41.205Z,9.7
2023-05-06T00:34:41.270Z,9.72
2023-05-06T00:35:41.378Z,9.73
2023-05-06T00:36:41.392Z,9.73
2023-05-06T00:37:41.043Z,9.74
2023-05-06T00:38:41.060Z,9.74
2023-05-06T00:39:41.126Z,9.74
2023-05-06T00:40:41.046Z,9.75
2023-05-06T00:41:41.044Z,9.75
2023-05-06T00:42:41.047Z,9.74
2023-05-06T00:43:41.040Z,9.75
2023-05-06T00:44:41.063Z,9.79
2023-05-06T00:45:41.046Z,9.8
2023-05-06T00:46:41.048Z,9.83
2023-05-06T00:47:41.046Z,9.84
2023-05-06T00:48:41.056Z,9.85
2023-05-06T00:49:41.543Z,9.86
2023-05-06T00:50:43.955Z,9.87
2023-05-06T00:51:46.970Z,9.88
2023-05-06T00:53:41.423Z,9.9
2023-05-06T00:54:41.295Z,9.91
2023-05-06T00:55:41.286Z,9.92
2023-05-06T00:56:41.072Z,9.9
2023-05-06T00:57:41.067Z,9.87
2023-05-06T00:58:41.045Z,9.87
2023-05-06T00:59:41.068Z,9.84
2023-05-06T01:00:41.061Z,9.82
2023-05-06T01:01:41.123Z,9.79
2023-05-06T01:02:47.318Z,9.76
2023-05-06T01:03:41.148Z,9.74
2023-05-06T01:04:41.071Z,9.71
2023-05-06T01:05:41.056Z,9.69
2023-05-06T01:06:41.051Z,9.67
2023-05-06T01:07:41.071Z,9.67
2023-05-06T01:08:41.050Z,9.64
2023-05-06T01:09:41.061Z,9.62
2023-05-06T01:10:41.111Z,9.59
2023-05-06T01:11:43.989Z,9.57
2023-05-06T01:12:47.097Z,9.56
2023-05-06T01:14:41.060Z,9.54
2023-05-06T01:15:41.071Z,9.53
2023-05-06T01:16:41.066Z,9.51
2023-05-06T01:17:41.105Z,9.51
2023-05-06T01:18:41.074Z,9.49
2023-05-06T01:19:41.058Z,9.49
2023-05-06T01:20:41.080Z,9.49
2023-05-06T01:21:41.083Z,9.51
2023-05-06T01:22:41.057Z,9.52
2023-05-06T01:23:41.044Z,9.55
2023-05-06T01:24:41.050Z,9.57
2023-05-06T01:25:41.078Z,9.63
2023-05-06T01:26:41.094Z,9.67
2023-05-06T01:27:41.057Z,9.7
2023-05-06T01:28:41.152Z,9.73
2023-05-06T01:29:41.060Z,9.74
2023-05-06T01:30:41.080Z,9.74
2023-05-06T01:31:41.093Z,9.73
2023-05-06T01:32:41.411Z,9.72
2023-05-06T01:33:45.139Z,9.7
2023-05-06T01:34:47.157Z,9.71
2023-05-06T01:36:41.064Z,9.75
2023-05-06T01:37:41.057Z,9.79
2023-05-06T01:38:41.076Z,9.79
2023-05-06T01:39:41.050Z,9.8
2023-05-06T01:40:41.071Z,9.81
2023-05-06T01:41:41.057Z,9.78
2023-05-06T01:42:41.071Z,9.76
2023-05-06T01:43:41.049Z,9.73
2023-05-06T01:44:41.073Z,9.69
2023-05-06T01:45:41.079Z,9.63
2023-05-06T01:46:41.241Z,9.59
2023-05-06T01:47:41.087Z,9.53
2023-05-06T01:48:41.052Z,9.48
2023-05-06T01:49:41.049Z,9.42
2023-05-06T01:50:41.047Z,9.41
2023-05-06T01:51:41.054Z,9.44
2023-05-06T01:52:41.073Z,9.44
2023-05-06T01:53:41.607Z,9.43
2023-05-06T01:54:45.188Z,9.39
2023-05-06T01:55:47.990Z,9.36
2023-05-06T01:57:41.067Z,9.26
2023-05-06T01:58:41.054Z,9.21
2023-05-06T01:59:41.057Z,9.18
2023-05-06T02:00:41.057Z,9.15
2023-05-06T02:01:41.063Z,9.15
2023-05-06T02:02:41.117Z,9.12
2023-05-06T02:03:41.117Z,9.11
2023-05-06T02:04:41.056Z,9.09
2023-05-06T02:05:41.047Z,9.05
2023-05-06T02:06:41.081Z,9.02
2023-05-06T02:07:41.054Z,9
2023-05-06T02:08:41.047Z,9.01
2023-05-06T02:09:41.052Z,9.02
2023-05-06T02:10:41.055Z,9.07
2023-05-06T02:11:41.070Z,9.15
2023-05-06T02:12:41.102Z,9.16
2023-05-06T02:13:41.054Z,9.18
2023-05-06T02:14:41.549Z,9.22
2023-05-06T02:15:45.363Z,9.23
2023-05-06T02:16:47.413Z,9.24
2023-05-06T02:18:41.076Z,9.2
2023-05-06T02:19:41.044Z,9.16
2023-05-06T02:20:41.078Z,9.11
2023-05-06T02:21:41.056Z,9.09
2023-05-06T02:22:41.049Z,9.09
2023-05-06T02:23:41.053Z,9.08
2023-05-06T02:24:41.055Z,9.08
2023-05-06T02:25:41.069Z,9.07
2023-05-06T02:26:41.062Z,9.05
2023-05-06T02:27:41.060Z,9.03
2023-05-06T02:28:41.059Z,8.98
2023-05-06T02:29:41.063Z,8.93
2023-05-06T02:30:41.051Z,8.87
2023-05-06T02:31:41.092Z,8.82
2023-05-06T02:32:41.073Z,8.78
2023-05-06T02:33:41.060Z,8.75
2023-05-06T02:34:41.057Z,8.74
2023-05-06T02:35:41.700Z,8.74
2023-05-06T02:36:45.414Z,8.75
2023-05-06T02:37:47.433Z,8.75
2023-05-06T02:39:41.157Z,8.74
2023-05-06T02:40:41.055Z,8.72
2023-05-06T02:41:41.050Z,8.72
2023-05-06T02:42:41.131Z,8.69
2023-05-06T02:43:41.056Z,8.73
2023-05-06T02:44:41.056Z,8.79
2023-05-06T02:45:41.101Z,8.89
2023-05-06T02:46:41.052Z,8.92
2023-05-06T02:47:41.091Z,8.95
2023-05-06T02:48:41.051Z,9
2023-05-06T02:49:41.048Z,9.02
2023-05-06T02:50:41.063Z,9.02
2023-05-06T02:51:41.060Z,9.02
2023-05-06T02:52:41.060Z,9
2023-05-06T02:53:41.048Z,8.99
2023-05-06T02:54:41.047Z,8.98
2023-05-06T02:55:41.077Z,8.98
2023-05-06T02:56:41.763Z,8.99
2023-05-06T02:57:45.427Z,9.02
2023-05-06T02:58:47.584Z,9.04
2023-05-06T03:00:41.274Z,9.07
2023-05-06T03:01:41.080Z,9.07
2023-05-06T03:02:41.078Z,9.05
2023-05-06T03:03:41.045Z,9.03
2023-05-06T03:04:41.103Z,9
2023-05-06T03:05:41.064Z,8.96
2023-05-06T03:06:41.047Z,8.93
2023-05-06T03:07:41.048Z,8.89
2023-05-06T03:08:41.041Z,8.88
2023-05-06T03:09:41.044Z,8.91
2023-05-06T03:10:41.052Z,8.96
2023-05-06T03:11:41.045Z,9
2023-05-06T03:12:41.075Z,9.04
2023-05-06T03:13:41.043Z,9.09
2023-05-06T03:14:41.044Z,9.15
2023-05-06T03:15:41.048Z,9.17
2023-05-06T03:16:41.121Z,9.19
2023-05-06T03:17:41.917Z,9.19
2023-05-06T03:18:45.553Z,9.18
2023-05-06T03:19:47.626Z,9.19
2023-05-06T03:21:41.087Z,9.22
2023-05-06T03:22:41.050Z,9.23
2023-05-06T03:23:41.032Z,9.23
2023-05-06T03:24:41.043Z,9.23
2023-05-06T03:25:41.076Z,9.23
2023-05-06T03:26:41.055Z,9.23
2023-05-06T03:27:41.046Z,9.25
2023-05-06T03:28:41.119Z,9.25
2023-05-06T03:29:41.203Z,9.23
2023-05-06T03:30:41.142Z,9.21
2023-05-06T03:31:41.307Z,9.19
2023-05-06T03:32:41.313Z,9.16
2023-05-06T03:33:41.253Z,9.12
2023-05-06T03:34:41.297Z,9.09
2023-05-06T03:35:41.057Z,9.06
2023-05-06T03:36:41.084Z,9.01
2023-05-06T03:37:41.094Z,8.97
2023-05-06T03:38:42.059Z,8.91
2023-05-06T03:39:45.728Z,8.83
2023-05-06T03:40:47.808Z,8.79
2023-05-06T03:42:41.080Z,8.67
2023-05-06T03:43:41.059Z,8.61
2023-05-06T03:44:41.051Z,8.54
2023-05-06T03:45:41.061Z,8.46
2023-05-06T03:46:41.213Z,8.4
2023-05-06T03:47:41.076Z,8.33
2023-05-06T03:48:41.085Z,8.29
2023-05-06T03:49:41.174Z,8.28
2023-05-06T03:50:41.301Z,8.25
2023-05-06T03:51:41.213Z,8.23
2023-05-06T03:52:41.303Z,8.19
2023-05-06T03:53:41.051Z,8.16
2023-05-06T03:54:41.072Z,8.15
2023-05-06T03:55:41.072Z,8.14
2023-05-06T03:56:41.118Z,8.13
2023-05-06T03:57:41.083Z,8.14
2023-05-06T03:58:41.067Z,8.15
2023-05-06T03:59:42.178Z,8.16
2023-05-06T04:00:45.819Z,8.16
2023-05-06T04:01:48.011Z,8.16
2023-05-06T04:03:41.097Z,8.17
2023-05-06T04:04:41.063Z,8.16
2023-05-06T04:05:41.064Z,8.16
2023-05-06T04:06:41.061Z,8.15
2023-05-06T04:07:41.059Z,8.15
2023-05-06T04:08:41.046Z,8.16
2023-05-06T04:09:41.042Z,8.17
2023-05-06T04:10:41.072Z,8.18
2023-05-06T04:11:41.042Z,8.22
2023-05-06T04:12:41.069Z,8.27
2023-05-06T04:13:41.039Z,8.32
2023-05-06T04:14:41.050Z,8.37
2023-05-06T04:15:41.065Z,8.42
2023-05-06T04:16:41.118Z,8.46
2023-05-06T04:17:41.105Z,8.5
2023-05-06T04:18:41.051Z,8.53
2023-05-06T04:19:41.047Z,8.58
2023-05-06T04:20:42.265Z,8.61
2023-05-06T04:21:45.849Z,8.66
2023-05-06T04:22:48.795Z,8.68
2023-05-06T04:24:41.048Z,8.76
2023-05-06T04:25:41.072Z,8.8
2023-05-06T04:26:41.064Z,8.84
2023-05-06T04:27:41.040Z,8.87
2023-05-06T04:28:41.046Z,8.9
2023-05-06T04:29:41.045Z,8.94
2023-05-06T04:30:41.042Z,8.98
2023-05-06T04:31:41.079Z,9
2023-05-06T04:32:41.075Z,9.03
2023-05-06T04:33:41.052Z,9.06
2023-05-06T04:34:41.053Z,9.09
2023-05-06T04:35:41.067Z,9.11
2023-05-06T04:36:41.055Z,9.14
2023-05-06T04:37:41.050Z,9.16
2023-05-06T04:38:41.042Z,9.17
2023-05-06T04:39:41.058Z,9.19
2023-05-06T04:40:41.055Z,9.2
2023-05-06T04:41:41.041Z,9.21
2023-05-06T04:42:43.574Z,9.23
2023-05-06T04:43:46.439Z,9.25
2023-05-06T04:45:41.085Z,9.31
2023-05-06T04:46:41.077Z,9.36
2023-05-06T04:47:41.086Z,9.39
2023-05-06T04:48:41.050Z,9.41
2023-05-06T04:49:41.052Z,9.43
2023-05-06T04:50:41.053Z,9.43
2023-05-06T04:51:41.127Z,9.42
2023-05-06T04:52:41.062Z,9.41
2023-05-06T04:53:41.055Z,9.42
2023-05-06T04:54:41.333Z,9.42
2023-05-06T04:55:41.064Z,9.43
2023-05-06T04:56:41.079Z,9.43
2023-05-06T04:57:41.055Z,9.44
2023-05-06T04:58:41.053Z,9.46
2023-05-06T04:59:41.056Z,9.48
2023-05-06T05:00:41.062Z,9.47
2023-05-06T05:01:41.070Z,9.48
2023-05-06T05:02:41.127Z,9.53
2023-05-06T05:03:43.603Z,9.55
2023-05-06T05:04:46.493Z,9.57
2023-05-06T05:06:41.061Z,9.57
2023-05-06T05:07:41.052Z,9.58
2023-05-06T05:08:41.058Z,9.6
2023-05-06T05:09:41.053Z,9.59
2023-05-06T05:10:41.060Z,9.6
2023-05-06T05:11:41.047Z,9.62
2023-05-06T05:12:41.063Z,9.64
2023-05-06T05:13:41.056Z,9.67
2023-05-06T05:14:41.063Z,9.7
2023-05-06T05:15:41.061Z,9.71
2023-05-06T05:16:41.093Z,9.74
2023-05-06T05:17:41.068Z,9.75
2023-05-06T05:18:41.075Z,9.77
2023-05-06T05:19:41.059Z,9.79
2023-05-06T05:20:41.061Z,9.81
2023-05-06T05:21:41.052Z,9.83
2023-05-06T05:22:41.050Z,9.84
2023-05-06T05:23:41.106Z,9.85
2023-05-06T05:24:43.528Z,9.86
2023-05-06T05:25:46.565Z,9.86
2023-05-06T05:27:41.053Z,9.94
2023-05-06T05:28:41.066Z,9.97
2023-05-06T05:29:41.046Z,10.01
2023-05-06T05:30:41.092Z,10.04
2023-05-06T05:31:41.134Z,10.06
2023-05-06T05:32:41.109Z,10.09
2023-05-06T05:33:41.096Z,10.13
2023-05-06T05:34:41.060Z,10.17
2023-05-06T05:35:41.058Z,10.23
2023-05-06T05:36:41.051Z,10.24
2023-05-06T05:37:41.047Z,10.26
2023-05-06T05:38:41.072Z,10.29
2023-05-06T05:39:41.059Z,10.3
2023-05-06T05:40:41.056Z,10.35
2023-05-06T05:41:41.063Z,10.37
2023-05-06T05:42:41.047Z,10.41
2023-05-06T05:43:41.107Z,10.43
2023-05-06T05:44:41.146Z,10.5
2023-05-06T05:45:43.546Z,10.54
2023-05-06T05:46:46.793Z,10.57
2023-05-06T05:48:41.099Z,10.63
2023-05-06T05:49:41.043Z,10.65
2023-05-06T05:50:41.055Z,10.69
2023-05-06T05:51:41.055Z,10.73
2023-05-06T05:52:41.050Z,10.74
2023-05-06T05:53:41.060Z,10.79
2023-05-06T05:54:41.042Z,10.86
2023-05-06T05:55:41.050Z,10.91
2023-05-06T05:56:41.053Z,10.96
2023-05-06T05:57:41.066Z,10.98
2023-05-06T05:58:41.052Z,10.99
2023-05-06T05:59:41.052Z,11.02
2023-05-06T06:00:41.054Z,11.07
2023-05-06T06:01:41.057Z,11.13
2023-05-06T06:02:41.104Z,11.17
2023-05-06T06:03:41.175Z,11.18
2023-05-06T06:04:41.073Z,11.2
2023-05-06T06:05:41.304Z,11.2
2023-05-06T06:06:43.562Z,11.23
2023-05-06T06:07:46.695Z,11.32
2023-05-06T06:09:41.072Z,11.66
2023-05-06T06:10:41.047Z,11.96
2023-05-06T06:11:41.044Z,12.28
2023-05-06T06:12:41.078Z,12.56
2023-05-06T06:13:41.078Z,12.82
2023-05-06T06:14:41.079Z,13.09
2023-05-06T06:15:41.059Z,13.38
2023-05-06T06:16:41.175Z,13.46
2023-05-06T06:17:41.070Z,13.63
2023-05-06T06:18:41.058Z,13.78
2023-05-06T06:19:41.084Z,13.92
2023-05-06T06:20:41.045Z,14.17
2023-05-06T06:21:41.049Z,14.44
2023-05-06T06:22:41.049Z,14.38
2023-05-06T06:23:41.058Z,14.61
2023-05-06T06:24:41.077Z,14.82
2023-05-06T06:25:41.051Z,15.03
2023-05-06T06:26:41.482Z,15.19
2023-05-06T06:27:43.634Z,15.32
2023-05-06T06:28:46.800Z,15.53
2023-05-06T06:30:41.056Z,16.22
2023-05-06T06:31:42.142Z,16.38
2023-05-06T06:32:41.076Z,16.59
2023-05-06T06:33:41.056Z,16.68
2023-05-06T06:34:41.114Z,16.82
2023-05-06T06:35:41.054Z,17.03
2023-05-06T06:36:41.050Z,17.1
2023-05-06T06:37:41.098Z,17.1
2023-05-06T06:38:41.051Z,17.25
2023-05-06T06:39:41.080Z,17.29
2023-05-06T06:40:41.071Z,17.15
2023-05-06T06:41:41.055Z,17.09
2023-05-06T06:42:41.044Z,17.04
2023-05-06T06:43:41.062Z,17.07
2023-05-06T06:44:41.128Z,16.93
2023-05-06T06:45:41.079Z,16.8
2023-05-06T06:46:41.063Z,16.54
2023-05-06T06:47:41.545Z,16.36
2023-05-06T06:48:43.768Z,16.23
2023-05-06T06:49:46.951Z,16.18
2023-05-06T06:51:41.058Z,16.3
2023-05-06T06:52:41.042Z,16.4
2023-05-06T06:53:41.047Z,16.51
2023-05-06T06:54:41.063Z,16.64
2023-05-06T06:55:41.054Z,16.89
2023-05-06T06:56:41.043Z,16.95
2023-05-06T06:57:41.054Z,17.12
2023-05-06T06:58:41.129Z,17.33
2023-05-06T06:59:41.235Z,17.26
2023-05-06T07:00:41.058Z,17.41
2023-05-06T07:01:41.067Z,17.3
2023-05-06T07:02:41.081Z,17.35
2023-05-06T07:03:41.057Z,17.08
2023-05-06T07:04:41.144Z,16.86
2023-05-06T07:05:41.069Z,16.63
2023-05-06T07:06:41.039Z,16.65
2023-05-06T07:07:41.043Z,16.75
2023-05-06T07:08:41.081Z,16.9
2023-05-06T07:09:43.987Z,17.07
2023-05-06T07:10:47.040Z,16.99
2023-05-06T07:12:41.096Z,16.5
2023-05-06T07:13:41.042Z,16.31
2023-05-06T07:14:41.042Z,16.37
2023-05-06T07:15:41.070Z,16.37
2023-05-06T07:16:41.178Z,16.59
2023-05-06T07:17:41.103Z,16.83
2023-05-06T07:18:41.048Z,17.08
2023-05-06T07:19:41.056Z,17.48
2023-05-06T07:20:41.044Z,17.81
2023-05-06T07:21:41.043Z,18.07
2023-05-06T07:22:41.048Z,18.32
2023-05-06T07:23:41.046Z,18.52
2023-05-06T07:24:41.055Z,18.68
2023-05-06T07:25:41.047Z,18.75
2023-05-06T07:26:41.125Z,18.77
2023-05-06T07:27:41.061Z,18.73
2023-05-06T07:28:41.068Z,18.78
2023-05-06T07:29:41.165Z,18.8
2023-05-06T07:30:44.124Z,19.02
2023-05-06T07:31:46.931Z,19.03
2023-05-06T07:33:41.052Z,18.76
2023-05-06T07:34:41.048Z,18.48
2023-05-06T07:35:41.036Z,18.26
2023-05-06T07:36:41.063Z,18.14
2023-05-06T07:37:41.058Z,17.96
2023-05-06T07:38:41.225Z,17.73
2023-05-06T07:39:41.053Z,17.58
2023-05-06T07:40:41.046Z,17.45
2023-05-06T07:41:41.042Z,17.46
2023-05-06T07:42:44.056Z,17.67
2023-05-06T07:43:41.048Z,17.92
2023-05-06T07:44:41.038Z,18.13
2023-05-06T07:45:41.037Z,18.32
2023-05-06T07:46:41.075Z,18.45
2023-05-06T07:47:41.327Z,18.55
2023-05-06T07:48:41.053Z,18.63
2023-05-06T07:49:41.044Z,18.79
2023-05-06T07:50:41.207Z,18.89
2023-05-06T07:51:44.185Z,19.01
2023-05-06T07:52:47.203Z,19.03
2023-05-06T07:54:41.044Z,19.34
2023-05-06T07:55:41.044Z,19.55
2023-05-06T07:56:41.048Z,19.75
2023-05-06T07:57:41.110Z,20.03
2023-05-06T07:58:41.183Z,20.26
2023-05-06T07:59:41.049Z,20.4
2023-05-06T08:00:41.052Z,20.35
2023-05-06T08:01:41.067Z,20.44
2023-05-06T08:02:41.215Z,20.47
2023-05-06T08:03:41.302Z,20.27
2023-05-06T08:04:41.106Z,20.22
2023-05-06T08:05:41.149Z,20.21
2023-05-06T08:06:41.270Z,20.31
2023-05-06T08:07:41.212Z,20.48
2023-05-06T08:08:41.246Z,20.5
2023-05-06T08:09:41.341Z,20.62
2023-05-06T08:10:41.165Z,20.73
2023-05-06T08:11:41.314Z,20.86
2023-05-06T08:12:44.323Z,20.52
2023-05-06T08:13:47.136Z,20.34
2023-05-06T08:15:41.329Z,20.1
2023-05-06T08:16:41.477Z,19.95
2023-05-06T08:17:41.082Z,19.99
2023-05-06T08:18:41.055Z,19.99
2023-05-06T08:19:41.045Z,20.04
2023-05-06T08:20:41.046Z,20.22
2023-05-06T08:21:41.059Z,20.66
2023-05-06T08:22:41.052Z,20.68
2023-05-06T08:23:41.054Z,20.44
2023-05-06T08:24:41.048Z,20.62
2023-05-06T08:25:41.044Z,20.87
2023-05-06T08:26:41.064Z,21.03
2023-05-06T08:27:41.077Z,21.13
2023-05-06T08:28:41.048Z,21.13
2023-05-06T08:29:41.064Z,21.09
2023-05-06T08:30:41.046Z,21.15
2023-05-06T08:31:41.121Z,21.18
2023-05-06T08:32:41.080Z,21.21
2023-05-06T08:33:41.758Z,21.48
2023-05-06T08:34:45.297Z,21.78
2023-05-06T08:35:47.460Z,21.9
2023-05-06T08:37:41.163Z,22.38
2023-05-06T08:38:41.054Z,22.46
2023-05-06T08:39:41.053Z,22.4
2023-05-06T08:40:41.047Z,22.35
2023-05-06T08:41:41.066Z,22.33
2023-05-06T08:42:41.092Z,22.17
2023-05-06T08:43:41.048Z,21.97
2023-05-06T08:44:41.067Z,21.72
2023-05-06T08:45:41.158Z,21.57
2023-05-06T08:46:41.062Z,21.34
2023-05-06T08:47:41.130Z,21.36
2023-05-06T08:48:41.052Z,21.34
2023-05-06T08:49:41.065Z,21.35
2023-05-06T08:50:41.055Z,21.44
2023-05-06T08:51:41.151Z,21.59
2023-05-06T08:52:41.190Z,21.89
2023-05-06T08:53:41.075Z,22.28
2023-05-06T08:54:41.900Z,22.58
2023-05-06T08:55:45.437Z,22.78
2023-05-06T08:56:48.362Z,22.85
2023-05-06T08:58:41.124Z,21.63
2023-05-06T08:59:41.291Z,21.95
2023-05-06T09:00:41.382Z,21.73
2023-05-06T09:01:41.306Z,21.78
2023-05-06T09:02:44.265Z,22.06
2023-05-06T09:03:41.071Z,22.39
2023-05-06T09:04:41.365Z,22.6
2023-05-06T09:05:41.058Z,22.83
2023-05-06T09:06:41.106Z,23.04
2023-05-06T09:07:41.100Z,23.16
2023-05-06T09:08:41.253Z,23.25
2023-05-06T09:09:41.053Z,23.33
2023-05-06T09:10:41.049Z,23.03
2023-05-06T09:11:41.053Z,23.19
2023-05-06T09:12:41.092Z,23.21
2023-05-06T09:13:41.048Z,23.28
2023-05-06T09:14:41.050Z,23.32
2023-05-06T09:15:42.022Z,23.32
2023-05-06T09:16:45.750Z,23
2023-05-06T09:17:47.761Z,22.97
2023-05-06T09:19:41.064Z,22.86
2023-05-06T09:20:41.076Z,22.74
2023-05-06T09:21:41.074Z,22.43
2023-05-06T09:22:41.064Z,22.4
2023-05-06T09:23:41.051Z,22.37
2023-05-06T09:24:41.048Z,22.37
2023-05-06T09:25:41.049Z,22.12
2023-05-06T09:26:41.175Z,21.78
2023-05-06T09:27:41.086Z,21.7
2023-05-06T09:28:41.052Z,21.82
2023-05-06T09:29:41.118Z,21.99
2023-05-06T09:30:41.067Z,22.13
2023-05-06T09:31:41.079Z,22.14
2023-05-06T09:32:42.347Z,22.27
2023-05-06T09:33:41.060Z,22.45
2023-05-06T09:34:41.053Z,22.58
2023-05-06T09:35:41.059Z,22.53
2023-05-06T09:36:42.196Z,22.41
2023-05-06T09:37:45.904Z,22.42
2023-05-06T09:38:48.690Z,22.45
2023-05-06T09:40:41.051Z,22.4
2023-05-06T09:41:41.074Z,22.27
2023-05-06T09:42:41.049Z,22.15
2023-05-06T09:43:41.072Z,21.94
2023-05-06T09:44:41.047Z,21.48
2023-05-06T09:45:41.047Z,21.4
2023-05-06T09:46:41.194Z,21.86
2023-05-06T09:47:41.233Z,22.33
2023-05-06T09:48:41.060Z,22.47
2023-05-06T09:49:41.063Z,22.84
2023-05-06T09:50:41.061Z,22.77
2023-05-06T09:51:41.060Z,22.29
2023-05-06T09:52:41.056Z,21.65
2023-05-06T09:53:41.057Z,22
2023-05-06T09:54:41.061Z,21.88
2023-05-06T09:55:41.051Z,21.46
2023-05-06T09:56:41.075Z,20.82
2023-05-06T09:57:42.652Z,20.37
2023-05-06T09:58:45.757Z,20.2
2023-05-06T09:59:47.964Z,20.22
2023-05-06T10:01:41.088Z,20.77
2023-05-06T10:02:41.260Z,21
2023-05-06T10:03:41.169Z,20.75
2023-05-06T10:04:41.177Z,21.08
2023-05-06T10:05:41.079Z,21.27
2023-05-06T10:06:41.063Z,21.58
2023-05-06T10:07:41.058Z,20.9
2023-05-06T10:08:41.057Z,20.78
2023-05-06T10:09:41.086Z,21.05
2023-05-06T10:10:41.088Z,21.49
2023-05-06T10:11:41.054Z,21.97
2023-05-06T10:12:41.087Z,22.29
2023-05-06T10:13:41.051Z,22.13
2023-05-06T10:14:41.067Z,22.44
2023-05-06T10:15:41.147Z,22.07
2023-05-06T10:16:41.116Z,21.98
2023-05-06T10:17:41.073Z,21.73
2023-05-06T10:18:42.360Z,21.79
2023-05-06T10:19:45.857Z,21.94
2023-05-06T10:20:48.896Z,21.93
2023-05-06T10:22:41.065Z,21.69
2023-05-06T10:23:41.059Z,21.43
2023-05-06T10:24:41.059Z,21.39
2023-05-06T10:25:41.073Z,21.25
2023-05-06T10:26:41.091Z,21.04
2023-05-06T10:27:41.065Z,20.94
2023-05-06T10:28:41.053Z,21.46
2023-05-06T10:29:41.054Z,21.74
2023-05-06T10:30:41.051Z,21.87
2023-05-06T10:31:41.072Z,21.73
2023-05-06T10:32:41.072Z,21.6
2023-05-06T10:33:44.060Z,21.76
2023-05-06T10:34:41.047Z,22.02
2023-05-06T10:35:41.067Z,22.23
2023-05-06T10:36:41.055Z,21.93
2023-05-06T10:37:41.072Z,21.24
2023-05-06T10:38:41.065Z,21.13
2023-05-06T10:39:42.420Z,21.09
2023-05-06T10:40:45.874Z,21.38
2023-05-06T10:41:48.386Z,21.4
2023-05-06T10:42:41.046Z,21.44
2023-05-06T10:43:41.047Z,21.46
2023-05-06T10:44:41.057Z,21.2
2023-05-06T10:45:41.063Z,20.94
2023-05-06T10:46:41.052Z,20.86
2023-05-06T10:47:41.050Z,21.02
2023-05-06T10:48:41.048Z,20.89
2023-05-06T10:49:41.055Z,20.83
2023-05-06T10:50:41.056Z,20.31
2023-05-06T10:51:41.053Z,20.13
2023-05-06T10:52:41.044Z,20.07
2023-05-06T10:53:41.055Z,19.74
2023-05-06T10:54:41.038Z,19.47
2023-05-06T10:55:41.050Z,19.37
2023-05-06T10:56:41.053Z,19.41
2023-05-06T10:57:41.040Z,19.45
2023-05-06T10:58:41.052Z,19.61
2023-05-06T10:59:41.046Z,19.86
2023-05-06T11:00:42.121Z,19.96
2023-05-06T11:01:45.528Z,20.2
2023-05-06T11:02:47.605Z,20.72
2023-05-06T11:03:41.108Z,20.98
2023-05-06T11:04:41.067Z,20.83
2023-05-06T11:05:41.048Z,20.92
2023-05-06T11:06:41.085Z,20.76
2023-05-06T11:07:41.048Z,20.69
2023-05-06T11:08:41.042Z,20.68
2023-05-06T11:09:41.052Z,21.13
2023-05-06T11:10:41.050Z,21.51
2023-05-06T11:11:41.066Z,21.48
2023-05-06T11:12:41.046Z,21.09
2023-05-06T11:13:41.071Z,21.34
2023-05-06T11:14:41.060Z,21.65
2023-05-06T11:15:41.061Z,21.18
2023-05-06T11:16:41.075Z,21.51
2023-05-06T11:17:41.064Z,21.9
2023-05-06T11:18:41.061Z,22.35
2023-05-06T11:19:41.045Z,22.71
2023-05-06T11:20:41.047Z,22.98
2023-05-06T11:21:42.579Z,22.78
2023-05-06T11:22:46.033Z,22.65
2023-05-06T11:23:47.514Z,22.82
2023-05-06T11:24:41.075Z,22.32
2023-05-06T11:25:41.060Z,22.07
2023-05-06T11:26:41.051Z,21.53
2023-05-06T11:27:41.075Z,21
2023-05-06T11:28:41.062Z,20.93
2023-05-06T11:29:41.052Z,20.74
2023-05-06T11:30:41.085Z,21.08
2023-05-06T11:31:41.093Z,20.99
2023-05-06T11:32:41.108Z,21.43
2023-05-06T11:33:41.036Z,21.73
2023-05-06T11:34:41.056Z,21.66
2023-05-06T11:35:41.052Z,21.38
2023-05-06T11:36:41.073Z,21.31
2023-05-06T11:37:41.076Z,21.05
2023-05-06T11:38:41.058Z,21.44
2023-05-06T11:39:42.051Z,21.73
2023-05-06T11:40:41.053Z,21.83
2023-05-06T11:41:41.053Z,22.16
2023-05-06T11:42:41.085Z,21.89
2023-05-06T11:43:43.395Z,22.24
2023-05-06T11:44:46.419Z,22.33
2023-05-06T11:46:41.104Z,22.04
2023-05-06T11:47:41.097Z,22.32
2023-05-06T11:48:41.050Z,21.84
2023-05-06T11:49:41.066Z,21.65
2023-05-06T11:50:41.061Z,21.86
2023-05-06T11:51:41.057Z,21.9
2023-05-06T11:52:41.087Z,21.7
2023-05-06T11:53:41.052Z,21.4
2023-05-06T11:54:41.080Z,21.6
2023-05-06T11:55:41.060Z,21.51
2023-05-06T11:56:41.058Z,21.64
2023-05-06T11:57:41.117Z,21.81
2023-05-06T11:58:41.056Z,21.86
2023-05-06T11:59:41.044Z,21.85
2023-05-06T12:00:41.069Z,21.8
2023-05-06T12:01:41.055Z,21.92
2023-05-06T12:02:41.113Z,21.69
2023-05-06T12:03:41.446Z,21.76
2023-05-06T12:04:43.286Z,22.04
2023-05-06T12:05:46.484Z,22.23
2023-05-06T12:07:41.058Z,21.95
2023-05-06T12:08:41.067Z,21.96
2023-05-06T12:09:41.052Z,21.66
2023-05-06T12:10:41.063Z,21.83
2023-05-06T12:11:42.051Z,22.19
2023-05-06T12:12:41.090Z,22.22
2023-05-06T12:13:41.057Z,21.75
2023-05-06T12:14:41.058Z,21.48
2023-05-06T12:15:41.051Z,21.3
2023-05-06T12:16:41.169Z,21.1
2023-05-06T12:17:41.112Z,21.05
2023-05-06T12:18:41.050Z,21.02
2023-05-06T12:19:41.045Z,21.07
2023-05-06T12:20:41.048Z,21.1
2023-05-06T12:21:41.064Z,21.13
2023-05-06T12:22:41.061Z,21.35
2023-05-06T12:23:41.043Z,21.54
2023-05-06T12:24:41.155Z,21.9
2023-05-06T12:25:43.428Z,22.24
2023-05-06T12:26:46.558Z,22.02
2023-05-06T12:28:41.056Z,22.27
2023-05-06T12:29:41.055Z,22.46
2023-05-06T12:30:41.048Z,22.33
2023-05-06T12:31:41.082Z,22.53
2023-05-06T12:32:41.095Z,22.73
2023-05-06T12:33:41.049Z,22.73
2023-05-06T12:34:41.053Z,22.81
2023-05-06T12:35:41.075Z,22.77
2023-05-06T12:36:41.048Z,22.54
2023-05-06T12:37:41.146Z,22.81
2023-05-06T12:38:41.137Z,23.16
2023-05-06T12:39:41.103Z,22.7
2023-05-06T12:40:41.139Z,22.46
2023-05-06T12:41:41.177Z,22.49
2023-05-06T12:42:41.157Z,22.28
2023-05-06T12:43:41.114Z,21.9
2023-05-06T12:44:41.142Z,21.65
2023-05-06T12:45:41.391Z,21.3
2023-05-06T12:46:43.460Z,21.02
2023-05-06T12:47:46.651Z,21.01
2023-05-06T12:49:41.164Z,21.07
2023-05-06T12:50:41.153Z,21.28
2023-05-06T12:51:41.138Z,21.48
2023-05-06T12:52:41.123Z,21.77
2023-05-06T12:53:41.133Z,21.82
2023-05-06T12:54:41.136Z,21.8
2023-05-06T12:55:41.149Z,21.73
2023-05-06T12:56:41.158Z,21.9
2023-05-06T12:57:41.122Z,21.69
2023-05-06T12:58:41.155Z,21.88
2023-05-06T12:59:41.155Z,21.84
2023-05-06T13:00:41.128Z,21.57
2023-05-06T13:01:41.203Z,21.3
2023-05-06T13:02:41.180Z,21.28
2023-05-06T13:03:41.298Z,21.34
2023-05-06T13:04:41.118Z,21.49
2023-05-06T13:05:41.127Z,21.49
2023-05-06T13:06:41.472Z,21.63
2023-05-06T13:07:43.620Z,21.68
2023-05-06T13:08:46.872Z,21.8
2023-05-06T13:10:41.126Z,22.57
2023-05-06T13:11:41.147Z,22.26
2023-05-06T13:12:41.132Z,22.3
2023-05-06T13:13:41.125Z,22.62
2023-05-06T13:14:41.220Z,22.41
2023-05-06T13:15:41.103Z,22.24
2023-05-06T13:16:41.156Z,22.3
2023-05-06T13:17:41.169Z,22.25
2023-05-06T13:18:41.058Z,21.95
2023-05-06T13:19:41.143Z,21.74
2023-05-06T13:20:41.048Z,21.49
2023-05-06T13:21:41.144Z,21.12
2023-05-06T13:22:50.951Z,20.79
2023-05-06T13:23:41.109Z,20.73
2023-05-06T13:24:41.088Z,20.83
2023-05-06T13:25:51.932Z,21.01
2023-05-06T13:26:41.118Z,21.24
2023-05-06T13:27:41.504Z,21.33
2023-05-06T13:28:43.703Z,21.25
2023-05-06T13:29:46.984Z,21.3
2023-05-06T13:31:41.148Z,21.47
2023-05-06T13:32:41.150Z,21.53
2023-05-06T13:33:41.054Z,21.46
2023-05-06T13:34:41.137Z,21.41
2023-05-06T13:35:41.297Z,21.42
2023-05-06T13:36:41.111Z,21.55
2023-05-06T13:37:41.127Z,21.94
2023-05-06T13:38:41.128Z,22.25
2023-05-06T13:39:41.069Z,22.5
2023-05-06T13:40:41.119Z,22.31
2023-05-06T13:41:41.151Z,21.95